Time;durP1;ratioP1;P1;durP2;ratioP2;P2;SDS_P1;SDS_P2;PMS_P1;PMS_P2;Temp;Humidity;BMP_temperature;BMP_pressure;BME280_temperature;BME280_humidity;BME280_pressure;Samples;Min_cycle;Max_cycle;Signal;HPM_P1;HPM_P2
2022/09/02 00:01:47;;;;;;;4.38;4.07;;;;;;;29.62;63.53;100675.72;5073519;28;66351;-28
2022/09/02 00:04:23;;;;;;;5.47;5.10;;;;;;;29.58;66.25;100660.97;5078826;28;70911;-29
2022/09/02 00:06:55;;;;;;;5.70;5.30;;;;;;;29.94;67.05;100727.94;5077100;28;66922;-28
2022/09/02 00:09:28;;;;;;;7.03;5.40;;;;;;;30.15;67.58;100756.53;5074126;28;70035;-28
2022/09/02 00:12:01;;;;;;;7.25;5.60;;;;;;;30.15;67.08;100759.25;5070693;28;65697;-28
2022/09/02 00:14:36;;;;;;;6.60;6.05;;;;;;;30.20;69.41;100762.13;5076950;28;70741;-28
2022/09/02 00:17:09;;;;;;;6.25;5.65;;;;;;;30.20;69.29;100770.25;5075884;28;65503;-29
2022/09/02 00:19:41;;;;;;;5.93;5.45;;;;;;;30.29;69.62;100776.25;5078667;28;70491;-27
2022/09/02 00:22:13;;;;;;;6.25;5.82;;;;;;;30.30;69.63;100779.78;5073646;28;66015;-27
2022/09/02 00:24:45;;;;;;;26.92;19.88;;;;;;;30.30;69.81;100779.78;5080938;27;71024;-28
2022/09/02 00:27:17;;;;;;;;;;;;;;;30.06;71.76;100787.59;5080899;27;67225;-30
2022/09/02 00:29:50;;;;;;;57.75;36.65;;;;;;;30.34;70.85;100787.25;5068268;28;71042;-29
2022/09/02 00:32:23;;;;;;;58.92;35.72;;;;;;;30.38;70.88;100791.16;5077989;28;67459;-28
2022/09/02 00:34:56;;;;;;;54.85;34.50;;;;;;;30.44;71.72;100806.53;5075040;28;70921;-30
2022/09/02 00:37:29;;;;;;;65.88;31.15;;;;;;;30.58;68.13;100806.44;5077589;28;66122;-29
2022/09/02 00:40:02;;;;;;;58.50;27.20;;;;;;;30.69;67.37;100813.84;5077229;28;71288;-28
2022/09/02 00:42:35;;;;;;;61.67;23.40;;;;;;;30.79;66.54;100811.47;5073234;27;66323;-29
2022/09/02 00:45:09;;;;;;;55.55;20.92;;;;;;;30.82;67.55;100804.81;5074479;27;70603;-28
2022/09/02 00:47:42;;;;;;;52.28;21.50;;;;;;;30.94;67.79;100816.56;5057468;28;66694;-28
2022/09/02 00:50:15;;;;;;;;;;;;;;;30.67;75.13;100815.94;5080896;28;71336;-29
2022/09/02 00:52:52;;;;;;;55.85;20.08;;;;;;;30.55;67.52;100740.03;5090932;27;67202;-29
2022/09/02 00:55:29;;;;;;;37.85;18.60;;;;;;;30.64;67.98;100749.50;5072361;28;70894;-29
2022/09/02 00:58:06;;;;;;;38.72;17.35;;;;;;;31.07;68.09;100802.91;5071606;27;67125;-29
2022/09/02 01:00:45;;;;;;;37.67;18.33;;;;;;;31.23;68.50;100825.03;5087882;27;69760;-29
2022/09/02 01:03:21;;;;;;;28.17;16.38;;;;;;;30.78;67.33;100743.97;5077066;28;66269;-29
2022/09/02 01:05:56;;;;;;;32.65;15.65;;;;;;;30.93;67.09;100755.34;5071191;28;69874;-27
2022/09/02 01:08:33;;;;;;;30.60;15.68;;;;;;;30.95;69.08;100755.91;5074394;28;66350;-30
2022/09/02 01:11:06;;;;;;;21.05;11.77;;;;;;;31.21;71.12;100819.88;5076674;28;70927;-28
2022/09/02 01:13:41;;;;;;;22.52;9.38;;;;;;;31.12;72.32;100819.31;5053910;28;67880;-29
2022/09/02 01:16:30;;;;;;;15.63;8.48;;;;;;;31.01;73.12;100822.78;5075758;28;70722;-31
2022/09/02 01:19:09;;;;;;;13.95;7.30;;;;;;;30.93;73.08;100809.50;5078682;28;66287;-29
2022/09/02 01:21:52;;;;;;;12.90;6.45;;;;;;;30.95;73.59;100818.22;5077043;28;70798;-30
2022/09/02 01:24:29;;;;;;;7.28;5.93;;;;;;;30.59;73.95;100760.19;5075620;28;67234;-28
2022/09/02 01:27:01;;;;;;;5.47;4.85;;;;;;;30.98;74.08;100822.38;5074454;27;69307;-29
2022/09/02 01:29:34;;;;;;;5.65;4.95;;;;;;;30.96;73.94;100809.06;5073661;27;66265;-28
2022/09/02 01:32:06;;;;;;;7.82;5.47;;;;;;;31.01;74.41;100819.22;5073976;28;70313;-29
2022/09/02 01:34:38;;;;;;;;;;;;;;;30.72;76.14;100819.63;5077621;28;67062;-28
2022/09/02 01:37:10;;;;;;;5.32;4.80;;;;;;;30.98;75.36;100814.25;5071196;28;70570;-29
2022/09/02 01:39:44;;;;;;;5.20;4.70;;;;;;;31.02;75.09;100815.47;5077889;28;66518;-28
2022/09/02 01:42:17;;;;;;;6.13;5.68;;;;;;;30.65;75.51;100758.47;5074429;28;70859;-28
2022/09/02 01:44:50;;;;;;;8.27;5.05;;;;;;;30.98;75.49;100815.09;5075062;28;67233;-29
2022/09/02 01:47:25;;;;;;;7.40;5.45;;;;;;;31.01;74.96;100822.78;5079287;27;71108;-30
2022/09/02 01:49:58;;;;;;;5.88;5.38;;;;;;;31.04;75.16;100816.91;5075813;28;67183;-30
2022/09/02 01:52:33;;;;;;;9.10;5.53;;;;;;;31.02;75.17;100813.59;5069316;28;70962;-29
2022/09/02 01:55:05;;;;;;;6.18;5.60;;;;;;;30.96;75.09;100797.41;5078507;28;66294;-28
2022/09/02 01:57:38;;;;;;;8.68;6.30;;;;;;;31.08;74.95;100809.97;5073514;27;70659;-30
2022/09/02 02:00:14;;;;;;;6.97;5.95;;;;;;;30.85;75.02;100769.16;5077799;28;66233;-29
2022/09/02 02:02:46;;;;;;;14.77;5.57;;;;;;;31.07;75.14;100805.63;5078418;28;71560;-30
2022/09/02 02:05:19;;;;;;;9.13;5.90;;;;;;;31.08;74.76;100791.00;5077994;27;66978;-29
2022/09/02 02:07:54;;;;;;;7.63;6.22;;;;;;;31.12;74.86;100797.66;5071842;28;70811;-28
2022/09/02 02:10:26;;;;;;;9.00;6.30;;;;;;;31.26;74.73;100822.72;5073436;28;66948;-29
2022/09/02 02:13:00;;;;;;;25.10;6.35;;;;;;;31.30;74.56;100826.63;5076130;27;70513;-31
2022/09/02 02:15:40;;;;;;;17.75;6.32;;;;;;;31.30;75.03;100828.53;5072344;28;67119;-28
2022/09/02 02:18:13;;;;;;;30.58;8.05;;;;;;;31.33;74.55;100837.03;5077498;28;70810;-28
2022/09/02 02:20:45;;;;;;;32.60;7.18;;;;;;;31.32;74.12;100831.84;5076758;28;65297;-30
2022/09/02 02:23:18;;;;;;;11.50;5.60;;;;;;;31.32;73.95;100831.84;5072233;28;69985;-28
2022/09/02 02:25:50;;;;;;;13.23;5.70;;;;;;;31.33;73.01;100830.78;5077553;27;66714;-29
2022/09/02 02:28:23;;;;;;;9.70;4.35;;;;;;;31.33;72.51;100825.34;5072645;28;71643;-28
2022/09/02 02:30:55;;;;;;;7.13;5.30;;;;;;;31.32;73.39;100821.00;5075483;28;66803;-29
2022/09/02 02:33:30;;;;;;;8.65;5.03;;;;;;;31.34;72.84;100821.59;5091999;27;70891;-30
2022/09/02 02:36:07;;;;;;;13.23;4.63;;;;;;;31.34;72.38;100827.00;5071570;28;66864;-29
2022/09/02 02:38:40;;;;;;;8.85;4.25;;;;;;;31.36;72.60;100819.53;5087978;27;70382;-29
2022/09/02 02:41:14;;;;;;;9.18;4.53;;;;;;;31.41;71.66;100821.56;5076015;28;67001;-31
2022/09/02 02:43:47;;;;;;;9.88;4.07;;;;;;;31.43;71.90;100820.28;5076201;28;69608;-30
2022/09/02 02:46:19;;;;;;;10.63;4.57;;;;;;;31.47;71.73;100813.34;5089729;27;66485;-29
2022/09/02 02:48:52;;;;;;;10.13;5.43;;;;;;;31.52;71.36;100813.50;5078633;27;70974;-29
2022/09/02 02:51:25;;;;;;;9.63;8.60;;;;;;;31.56;71.20;100809.25;5080965;28;66422;-29
2022/09/02 02:54:00;;;;;;;11.35;7.15;;;;;;;31.58;70.60;100801.75;5078256;28;70683;-29
2022/09/02 02:56:33;;;;;;;13.90;5.03;;;;;;;31.54;70.83;100778.88;5078839;28;66591;-30
2022/09/02 02:59:06;;;;;;;5.43;4.78;;;;;;;31.39;70.18;100759.44;5078382;28;70693;-30
2022/09/02 03:01:40;;;;;;;6.43;4.20;;;;;;;31.73;70.10;100792.38;5081019;28;67096;-30
2022/09/02 03:04:12;;;;;;;18.73;5.45;;;;;;;31.82;70.94;100783.72;5079030;28;69778;-35
2022/09/02 03:06:46;;;;;;;45.28;6.43;;;;;;;31.77;71.68;100790.88;5077462;27;66196;-31
2022/09/02 03:09:19;;;;;;;19.83;5.35;;;;;;;31.73;69.91;100792.38;5078978;28;69981;-32
2022/09/02 03:11:51;;;;;;;19.55;5.00;;;;;;;31.74;69.90;100788.63;5079245;28;67127;-31
2022/09/02 03:14:25;;;;;;;5.60;3.92;;;;;;;31.75;69.35;100793.00;5076543;28;70529;-31
2022/09/02 03:16:57;;;;;;;10.27;4.25;;;;;;;31.43;69.77;100741.69;5076665;28;66130;-30
2022/09/02 03:19:29;;;;;;;7.75;4.10;;;;;;;31.72;69.62;100785.31;5080689;28;70143;-30
2022/09/02 03:22:03;;;;;;;9.13;4.00;;;;;;;31.77;69.21;100782.75;5077678;28;65865;-31
2022/09/02 03:24:37;;;;;;;5.18;4.18;;;;;;;31.78;68.68;100776.25;5073051;28;70213;-32
2022/09/02 03:27:09;;;;;;;10.82;4.10;;;;;;;31.87;68.07;100777.59;5072208;28;67396;-30
2022/09/02 03:29:43;;;;;;;9.13;4.13;;;;;;;31.75;67.51;100755.03;5068946;28;70776;-32
2022/09/02 03:32:16;;;;;;;3.92;3.60;;;;;;;31.92;66.67;100771.50;5076853;28;66307;-30
2022/09/02 03:34:49;;;;;;;9.07;3.55;;;;;;;31.96;66.23;100772.72;5076246;28;70912;-30
2022/09/02 03:37:22;;;;;;;27.17;4.18;;;;;;;32.00;66.13;100771.19;5078210;28;66744;-30
2022/09/02 03:39:54;;;;;;;7.72;3.95;;;;;;;32.01;66.44;100768.25;5075535;27;70451;-34
2022/09/02 03:42:26;;;;;;;14.30;4.00;;;;;;;32.03;66.24;100766.13;5079139;27;66894;-30
2022/09/02 03:45:01;;;;;;;8.30;4.07;;;;;;;32.08;72.63;100778.19;5094062;27;69911;-45
2022/09/02 03:47:39;;;;;;;5.80;4.72;;;;;;;31.85;68.14;100752.59;5055415;28;66115;-36
2022/09/02 03:50:11;;;;;;;5.43;4.50;;;;;;;31.87;68.90;100766.72;5067079;28;70196;-35
2022/09/02 03:52:44;;;;;;;9.65;6.53;;;;;;;31.89;69.24;100761.91;5085585;27;66405;-35
2022/09/02 03:55:18;;;;;;;8.30;5.18;;;;;;;31.88;69.58;100762.16;5078797;28;70416;-36
2022/09/02 03:57:51;;;;;;;5.75;5.15;;;;;;;31.92;69.74;100764.19;5072335;28;66321;-35
2022/09/02 04:00:30;;;;;;;5.32;4.10;;;;;;;31.91;68.95;100746.28;5073120;28;70707;-37
2022/09/02 04:03:06;;;;;;;5.10;4.60;;;;;;;31.90;69.01;100733.75;5069674;28;66252;-37
2022/09/02 04:05:38;;;;;;;6.05;4.22;;;;;;;32.02;68.80;100753.63;5077685;28;69957;-35
2022/09/02 04:08:10;;;;;;;4.43;3.50;;;;;;;32.02;68.89;100748.19;5079177;28;66833;-36
2022/09/02 04:10:43;;;;;;;7.47;4.35;;;;;;;32.02;68.66;100733.81;5074523;28;70893;-34
2022/09/02 04:13:16;;;;;;;11.70;4.40;;;;;;;32.13;67.63;100732.19;5078370;28;67086;-38
2022/09/02 04:15:50;;;;;;;5.65;4.07;;;;;;;32.16;67.72;100737.16;5079121;28;70998;-37
2022/09/02 04:18:25;;;;;;;5.32;4.75;;;;;;;31.87;67.57;100682.66;5079596;28;66891;-33
2022/09/02 04:21:02;;;;;;;6.28;4.45;;;;;;;32.09;67.42;100714.69;5078194;28;71454;-37
2022/09/02 04:23:37;;;;;;;7.00;4.30;;;;;;;32.10;66.84;100710.94;5073173;28;67062;-36
2022/09/02 04:26:12;;;;;;;8.38;3.72;;;;;;;31.87;66.65;100660.94;5075461;28;70747;-35
2022/09/02 04:28:48;;;;;;;9.80;4.57;;;;;;;31.87;66.81;100658.22;5075710;28;66772;-37
2022/09/02 04:31:24;;;;;;;3.97;3.65;;;;;;;32.21;66.60;100702.00;5072364;28;70739;-35
2022/09/02 04:33:57;;;;;;;7.57;4.47;;;;;;;32.36;66.15;100715.13;5077464;28;67043;-36
2022/09/02 04:36:30;;;;;;;7.70;4.03;;;;;;;32.39;66.44;100703.78;5076245;28;70766;-38
2022/09/02 04:39:08;;;;;;;10.52;3.90;;;;;;;32.41;66.37;100697.06;5090556;27;67017;-35
2022/09/02 04:41:41;;;;;;;5.95;3.85;;;;;;;32.47;66.14;100690.72;5074993;28;70888;-35
2022/09/02 04:44:15;;;;;;;4.30;3.90;;;;;;;32.29;65.93;100652.81;5069195;28;66280;-33
2022/09/02 04:46:49;;;;;;;11.82;4.20;;;;;;;32.48;66.30;100686.94;5077391;27;71053;-34
2022/09/02 04:49:24;;;;;;;6.18;4.53;;;;;;;32.47;66.33;100669.00;5075881;28;66292;-34
2022/09/02 04:51:58;;;;;;;9.70;4.20;;;;;;;32.47;66.48;100674.41;5062759;28;70004;-36
2022/09/02 04:54:31;;;;;;;4.28;3.90;;;;;;;32.44;66.54;100674.88;5073860;28;67179;-34
2022/09/02 04:57:04;;;;;;;4.28;3.97;;;;;;;32.47;66.48;100663.56;5072846;28;69788;-35
2022/09/02 04:59:37;;;;;;;5.00;3.42;;;;;;;32.41;66.49;100658.22;5068042;28;66842;-35
2022/09/02 05:02:13;;;;;;;5.07;3.88;;;;;;;32.42;66.55;100649.84;5075827;28;70224;-34
2022/09/02 05:04:46;;;;;;;4.82;4.00;;;;;;;32.40;66.38;100641.13;5074375;28;66732;-36
2022/09/02 05:07:25;;;;;;;4.63;4.22;;;;;;;32.35;66.23;100646.44;5074354;28;70161;-35
2022/09/02 05:10:02;;;;;;;6.18;4.03;;;;;;;32.31;64.65;100647.94;5076967;28;67527;-39
2022/09/02 05:12:39;;;;;;;4.20;3.80;;;;;;;32.19;63.62;100649.84;5078578;27;70204;-35
2022/09/02 05:15:12;;;;;;;5.15;4.75;;;;;;;32.00;63.24;100638.25;5058615;28;66668;-35
2022/09/02 05:17:45;;;;;;;7.10;4.72;;;;;;;31.93;63.21;100630.22;5084359;27;70517;-36
2022/09/02 05:20:18;;;;;;;8.10;4.88;;;;;;;31.88;62.93;100629.25;5077200;27;66853;-34
2022/09/02 05:22:51;;;;;;;8.27;4.78;;;;;;;31.81;61.94;100626.63;5076014;27;70689;-35
2022/09/02 05:25:24;;;;;;;12.20;4.50;;;;;;;31.72;60.92;100618.00;5091172;27;66316;-36
2022/09/02 05:27:57;;;;;;;8.75;4.32;;;;;;;31.67;59.69;100614.34;5090464;27;70833;-34
2022/09/02 05:30:29;;;;;;;5.15;4.28;;;;;;;31.24;59.72;100545.72;5075814;27;66413;-34
2022/09/02 05:33:02;;;;;;;5.50;5.10;;;;;;;31.52;59.15;100596.63;5075331;27;69851;-36
2022/09/02 05:35:41;;;;;;;6.22;4.18;;;;;;;31.22;58.16;100541.59;5073643;28;67056;-33
2022/09/02 05:38:18;;;;;;;5.72;3.13;;;;;;;31.52;57.63;100596.63;5089998;27;70874;-38
2022/09/02 05:40:50;;;;;;;9.15;3.40;;;;;;;31.44;57.37;100583.38;5074826;27;66843;-34
2022/09/02 05:43:25;;;;;;;4.55;3.90;;;;;;;31.40;56.38;100582.22;5076138;28;43383;-33
2022/09/02 05:45:58;;;;;;;3.80;3.35;;;;;;;31.43;56.07;100587.16;5073601;28;66200;-35
2022/09/02 05:51:21;;;;;;;3.28;3.08;;;;;;;31.31;54.93;100573.53;5074317;28;66820;-35
2022/09/02 05:53:58;;;;;;;3.53;3.10;;;;;;;31.03;54.37;100519.13;5074618;28;70665;-34
2022/09/02 05:56:30;;;;;;;3.10;2.90;;;;;;;31.29;54.04;100564.00;5076847;28;67512;-32
2022/09/02 05:59:02;;;;;;;5.70;3.47;;;;;;;31.27;53.79;100549.84;5074666;27;72246;-33
2022/09/02 06:01:35;;;;;;;2.80;2.60;;;;;;;31.23;53.54;100543.22;5074722;27;66971;-35
2022/09/02 06:04:08;;;;;;;5.30;3.05;;;;;;;31.11;53.18;100525.03;5075148;28;70439;-32
2022/09/02 06:06:42;;;;;;;6.75;3.08;;;;;;;31.12;52.42;100526.72;5071764;28;64411;-33
2022/09/02 06:09:21;;;;;;;5.95;2.90;;;;;;;30.84;52.36;100475.88;5075963;28;71213;-34
2022/09/02 06:11:53;;;;;;;2.88;2.67;;;;;;;31.09;51.90;100518.19;5072247;28;65971;-34
2022/09/02 06:14:31;;;;;;;7.25;2.92;;;;;;;31.13;52.26;100519.41;5072721;28;70055;-33
2022/09/02 06:17:05;;;;;;;4.20;2.45;;;;;;;31.12;51.63;100521.28;5066779;28;66710;-32
2022/09/02 06:19:43;;;;;;;3.17;2.85;;;;;;;31.08;52.00;100509.25;5075682;28;70871;-36
2022/09/02 06:22:16;;;;;;;9.40;2.90;;;;;;;31.08;51.69;100514.66;5076028;27;67175;-33
2022/09/02 06:24:51;;;;;;;12.20;2.90;;;;;;;31.05;51.21;100507.00;5078386;28;71083;-32
2022/09/02 06:27:28;;;;;;;3.35;3.05;;;;;;;31.02;51.31;100499.34;5076615;28;67300;-31
2022/09/02 06:30:03;;;;;;;6.95;3.22;;;;;;;31.02;50.93;100493.94;5068483;28;71271;-31
2022/09/02 06:32:36;;;;;;;8.32;2.90;;;;;;;31.02;51.01;100490.41;5074100;28;65999;-32
2022/09/02 06:35:12;;;;;;;5.25;3.28;;;;;;;31.00;50.56;100487.09;5071259;28;70656;-34
2022/09/02 06:37:45;;;;;;;6.80;2.72;;;;;;;31.00;50.69;100487.09;5078125;27;66628;-32
2022/09/02 06:40:18;;;;;;;2.80;2.60;;;;;;;30.97;50.02;100496.50;5078034;27;70577;-33
2022/09/02 06:42:52;;;;;;;2.90;2.70;;;;;;;30.95;50.13;100487.78;5073460;27;65923;-33
2022/09/02 06:45:33;;;;;;;3.17;2.80;;;;;;;30.91;49.98;100487.41;5078781;28;70238;-33
2022/09/02 06:48:06;;;;;;;4.53;3.10;;;;;;;30.92;49.45;100482.81;5079694;28;65794;-33
2022/09/02 06:50:43;;;;;;;2.90;2.70;;;;;;;30.91;49.74;100486.59;5075635;28;70803;-33
2022/09/02 06:53:18;;;;;;;3.35;2.17;;;;;;;30.88;49.97;100484.34;5079902;27;66833;-35
2022/09/02 06:55:50;;;;;;;3.35;2.75;;;;;;;30.85;49.39;100471.25;5074897;28;69934;-33
2022/09/02 06:58:24;;;;;;;2.72;2.53;;;;;;;30.89;49.75;100483.28;5092199;27;66307;-33
2022/09/02 07:00:56;;;;;;;2.72;2.53;;;;;;;30.88;49.70;100479.75;5075913;28;69917;-37
2022/09/02 07:06:21;;;;;;;2.80;2.60;;;;;;;30.90;49.81;100474.13;5080384;27;70815;-34
2022/09/02 07:08:54;;;;;;;5.90;2.35;;;;;;;30.91;49.21;100470.34;5076841;28;67829;-35
2022/09/02 07:11:27;;;;;;;2.63;2.33;;;;;;;30.81;49.43;100457.34;5077736;28;70828;-33
2022/09/02 07:14:00;;;;;;;3.22;1.98;;;;;;;30.91;49.17;100473.06;5073129;28;66121;-36
2022/09/02 07:16:36;;;;;;;3.42;2.22;;;;;;;30.91;48.48;100467.63;5078285;27;70541;-34
2022/09/02 07:19:09;;;;;;;2.08;1.98;;;;;;;30.90;49.10;100457.88;5078660;27;66104;-35
2022/09/02 07:21:49;;;;;;;2.83;2.63;;;;;;;30.90;48.64;100468.69;5077902;27;70620;-33
2022/09/02 07:24:23;;;;;;;2.63;2.42;;;;;;;30.89;48.29;100456.19;5077962;27;66200;-33
2022/09/02 07:26:56;;;;;;;2.38;2.17;;;;;;;30.85;48.63;100455.00;5074188;28;71027;-33
2022/09/02 07:29:29;;;;;;;3.47;2.30;;;;;;;30.77;48.35;100441.78;5075206;28;67108;-33
2022/09/02 07:32:03;;;;;;;2.42;2.15;;;;;;;30.84;48.05;100447.94;5077587;27;70579;-33
2022/09/02 07:34:36;;;;;;;2.78;2.58;;;;;;;30.82;48.17;100450.88;5075297;27;66057;-33
2022/09/02 07:37:09;;;;;;;2.88;2.25;;;;;;;30.82;47.99;100439.22;5078806;28;71126;-33
2022/09/02 07:39:44;;;;;;;2.63;2.25;;;;;;;30.82;48.09;100433.81;5077898;28;67343;-34
2022/09/02 07:42:18;;;;;;;2.33;1.98;;;;;;;30.71;47.82;100417.25;5081518;27;70260;-32
2022/09/02 07:44:50;;;;;;;3.78;2.60;;;;;;;30.82;47.48;100433.81;5076646;27;66770;-34
2022/09/02 07:47:23;;;;;;;2.30;2.10;;;;;;;30.81;47.76;100435.66;5077023;28;69909;-33
2022/09/02 07:49:55;;;;;;;3.85;2.35;;;;;;;30.76;47.60;100423.84;5074877;28;67322;-34
2022/09/02 07:52:50;;;;;;;4.15;2.40;;;;;;;30.79;47.54;100434.25;5077288;28;70525;-32
2022/09/02 07:55:23;;;;;;;2.38;2.10;;;;;;;30.76;47.54;100421.16;5079009;28;67034;-32
2022/09/02 07:57:55;;;;;;;2.72;2.53;;;;;;;30.77;47.83;100425.53;5075268;28;71196;-32
2022/09/02 08:00:28;;;;;;;2.45;2.28;;;;;;;30.77;47.14;100431.75;5079600;27;67077;-33
2022/09/02 08:03:08;;;;;;;3.17;2.88;;;;;;;30.07;47.69;100302.38;5079540;27;70708;-35
2022/09/02 08:05:47;;;;;;;4.65;4.07;;;;;;;30.79;49.82;100418.00;5039487;28;66810;-33
2022/09/02 08:08:20;;;;;;;3.80;3.55;;;;;;;30.79;50.38;100415.28;5077130;27;70375;-33
2022/09/02 08:10:53;;;;;;;6.43;4.68;;;;;;;30.75;50.21;100419.50;5077007;28;66536;-33
2022/09/02 08:13:25;;;;;;;4.45;4.15;;;;;;;30.82;49.67;100433.81;5077822;28;69997;-33
2022/09/02 08:15:58;;;;;;;5.00;4.60;;;;;;;30.83;49.08;100432.75;5075833;28;66990;-34
2022/09/02 08:18:31;;;;;;;4.45;4.18;;;;;;;30.78;49.73;100424.47;5080922;28;70050;-35
2022/09/02 08:21:03;;;;;;;4.70;4.40;;;;;;;30.77;50.75;100420.09;5081032;28;66314;-35
2022/09/02 08:23:35;;;;;;;9.95;5.20;;;;;;;30.79;52.21;100418.81;5076827;28;70302;-34
2022/09/02 08:26:08;;;;;;;7.18;5.32;;;;;;;30.79;51.38;100415.28;5079130;27;66828;-35
2022/09/02 08:28:40;;;;;;;4.70;4.25;;;;;;;30.76;50.54;100400.34;5081552;27;71162;-37
2022/09/02 08:31:12;;;;;;;6.78;4.50;;;;;;;30.76;50.96;100388.66;5079714;27;67056;-35
2022/09/02 08:33:44;;;;;;;4.80;4.13;;;;;;;30.67;50.55;100375.47;5082815;27;70879;-34
2022/09/02 08:36:17;;;;;;;11.45;7.28;;;;;;;30.87;57.58;100386.03;5080117;27;65209;-36
2022/09/02 08:38:50;;;;;;;11.63;10.38;;;;;;;31.01;61.74;100380.38;5054779;27;70020;-37
2022/09/02 08:41:45;;;;;;;12.55;11.25;;;;;;;31.03;63.92;100367.44;5077565;27;66033;-34
2022/09/02 08:44:22;;;;;;;12.95;11.70;;;;;;;31.25;65.26;100378.53;5080387;27;71004;-34
2022/09/02 08:47:01;;;;;;;15.32;12.27;;;;;;;30.93;66.58;100316.56;5081117;27;67451;-36
2022/09/02 08:49:49;;;;;;;14.77;13.30;;;;;;;31.41;67.53;100380.56;5078944;27;71271;-36
2022/09/02 08:52:59;;;;;;;18.40;14.02;;;;;;;31.06;68.89;100338.00;5081079;27;66169;-34
2022/09/02 08:55:42;;;;;;;17.20;12.63;;;;;;;30.87;68.64;100279.56;5079044;27;71481;-35
2022/09/02 08:58:18;;;;;;;12.50;11.32;;;;;;;31.44;68.12;100360.31;5076430;28;67184;-34
2022/09/02 09:01:07;;;;;;;14.20;12.73;;;;;;;31.40;69.89;100343.69;5074661;27;70822;-38
2022/09/02 09:04:18;;;;;;;19.90;13.15;;;;;;;31.75;70.34;100405.19;5078399;28;67143;-39
2022/09/02 09:07:08;;;;;;;13.27;11.55;;;;;;;31.80;71.42;100410.72;5074525;27;69982;-36
2022/09/02 09:09:50;;;;;;;17.98;12.82;;;;;;;31.69;71.05;100385.25;5069562;28;66895;-36
2022/09/02 09:12:27;;;;;;;;;;;;;;;31.76;71.39;100412.25;5075119;27;70121;-34
2022/09/02 09:15:28;;;;;;;19.52;13.27;;;;;;;31.92;70.68;100406.13;5078298;27;67460;-35
2022/09/02 09:18:10;;;;;;;17.50;12.25;;;;;;;31.58;68.86;100346.25;5024177;28;69694;-35
2022/09/02 09:20:43;;;;;;;12.30;11.40;;;;;;;32.00;68.32;100411.19;5076816;28;66694;-34
2022/09/02 09:23:37;;;;;;;13.23;11.75;;;;;;;31.96;69.09;100401.88;5075870;28;70997;-34
2022/09/02 09:26:12;;;;;;;14.63;12.30;;;;;;;32.08;67.39;100403.75;5075976;28;66339;-34
2022/09/02 09:28:46;;;;;;;14.32;11.63;;;;;;;32.11;67.18;100397.84;5076168;28;70671;-34
2022/09/02 09:31:23;;;;;;;12.65;11.52;;;;;;;31.76;67.17;100337.16;5075188;28;66154;-35
2022/09/02 09:34:05;;;;;;;12.27;11.15;;;;;;;32.10;68.07;100401.63;5073328;28;70275;-35
2022/09/02 09:36:43;;;;;;;13.07;11.25;;;;;;;32.13;67.24;100412.00;5075306;28;65704;-35
2022/09/02 09:39:31;;;;;;;16.70;12.00;;;;;;;32.10;68.01;100428.75;5078677;27;70749;-35
2022/09/02 09:42:13;;;;;;;13.00;11.90;;;;;;;32.09;67.70;100416.25;5077618;27;67621;-34
2022/09/02 09:44:47;;;;;;;17.90;11.60;;;;;;;32.05;69.39;100422.16;5080745;27;69995;-37
2022/09/02 09:47:24;;;;;;;20.25;12.98;;;;;;;32.12;70.83;100438.28;5082437;27;65821;-36
2022/09/02 09:50:16;;;;;;;14.20;12.85;;;;;;;32.05;71.02;100468.28;5080267;27;70771;-35
2022/09/02 09:52:49;;;;;;;13.50;12.07;;;;;;;32.07;71.99;100483.47;5076644;28;66645;-35
2022/09/02 09:55:21;;;;;;;13.65;12.40;;;;;;;32.09;72.46;100497.63;5077463;28;70652;-38
2022/09/02 09:58:09;;;;;;;18.20;12.45;;;;;;;32.03;72.19;100492.09;5076296;28;67988;-36
2022/09/02 10:00:41;;;;;;;14.23;12.70;;;;;;;32.03;72.86;100478.53;5071045;28;70420;-38
2022/09/02 10:03:30;;;;;;;12.18;11.00;;;;;;;31.64;72.11;100430.41;5077757;28;66365;-37
2022/09/02 10:06:23;;;;;;;16.67;11.45;;;;;;;32.01;72.14;100491.53;5074768;28;70507;-37
2022/09/02 10:09:04;;;;;;;13.57;12.10;;;;;;;31.54;72.39;100399.31;5078240;27;66167;-35
2022/09/02 10:11:37;;;;;;;12.73;11.63;;;;;;;32.04;72.13;100477.47;5081900;27;70716;-36
2022/09/02 10:14:10;;;;;;;11.65;10.75;;;;;;;31.59;71.13;100418.41;5080976;27;66411;-36
2022/09/02 10:17:18;;;;;;;11.85;10.60;;;;;;;31.75;71.77;100449.38;5081783;28;70958;-37
2022/09/02 10:19:55;;;;;;;11.05;10.05;;;;;;;32.10;70.75;100483.03;5059315;28;66164;-37
2022/09/02 10:23:03;;;;;;;12.30;10.93;;;;;;;32.01;71.34;100507.81;5077645;28;69906;-38
2022/09/02 10:25:54;;;;;;;11.40;10.27;;;;;;;32.13;69.99;100521.34;5053024;28;66338;-36
2022/09/02 10:28:32;;;;;;;11.50;10.52;;;;;;;32.15;70.82;100518.38;5075783;27;71043;-35
2022/09/02 10:31:40;;;;;;;11.85;10.50;;;;;;;32.10;71.14;100516.41;5078158;28;66939;-36
2022/09/02 10:34:34;;;;;;;12.43;10.10;;;;;;;32.11;71.17;100522.66;5080011;27;71237;-36
2022/09/02 10:37:18;;;;;;;20.10;9.85;;;;;;;32.20;70.78;100548.34;5078280;28;67001;-36
2022/09/02 10:40:18;;;;;;;11.82;8.70;;;;;;;32.18;70.35;100548.59;5079032;28;71187;-36
2022/09/02 10:43:01;;;;;;;8.45;7.75;;;;;;;32.16;70.70;100558.03;5079249;27;66303;-36
2022/09/02 10:45:42;;;;;;;10.10;7.65;;;;;;;31.74;70.35;100493.03;5081410;27;70826;-35
2022/09/02 10:48:29;;;;;;;8.13;7.57;;;;;;;32.14;69.77;100571.84;5080051;28;66056;-36
2022/09/02 10:51:10;;;;;;;8.00;6.90;;;;;;;32.19;69.24;100566.53;5067845;28;70592;-36
2022/09/02 10:54:12;;;;;;;8.75;7.22;;;;;;;32.11;69.33;100566.06;5075945;28;67218;-37
2022/09/02 10:56:50;;;;;;;13.30;5.95;;;;;;;32.16;68.81;100590.63;5070631;28;70691;-37
2022/09/02 10:59:32;;;;;;;6.32;5.45;;;;;;;32.15;68.40;100594.38;5077275;28;66075;-37
2022/09/02 11:02:27;;;;;;;5.65;5.18;;;;;;;32.07;68.44;100598.28;5068929;28;70442;-38
2022/09/02 11:05:05;;;;;;;6.40;5.90;;;;;;;31.85;68.32;100546.47;5077728;28;66103;-36
2022/09/02 11:08:05;;;;;;;7.05;6.03;;;;;;;32.16;68.22;100601.47;5075178;27;70783;-39
2022/09/02 11:10:57;;;;;;;7.32;6.63;;;;;;;32.16;68.78;100601.47;5075634;27;67010;-38
2022/09/02 11:13:38;;;;;;;7.30;6.68;;;;;;;32.06;69.49;100604.75;5078575;27;70948;-38
2022/09/02 11:16:25;;;;;;;6.80;6.30;;;;;;;31.63;69.59;100570.59;5095045;27;66095;-37
2022/09/02 11:19:10;;;;;;;6.22;5.50;;;;;;;31.93;70.15;100635.66;5078353;27;69454;-37
2022/09/02 11:22:18;;;;;;;6.28;5.78;;;;;;;31.84;70.77;100647.84;5076800;27;66172;-38
2022/09/02 11:25:36;;;;;;;5.85;5.25;;;;;;;31.86;71.08;100643.03;5070116;27;70050;-34
2022/09/02 11:28:26;;;;;;;6.80;5.60;;;;;;;31.85;71.60;100652.25;5030769;28;66889;-33
2022/09/02 11:31:17;;;;;;;16.98;5.35;;;;;;;31.84;71.76;100666.84;5081812;27;70788;-36
2022/09/02 11:34:18;;;;;;;6.38;5.63;;;;;;;31.80;72.07;100690.06;5077918;27;67160;-35
2022/09/02 11:36:52;;;;;;;10.30;5.53;;;;;;;31.81;71.17;100697.13;5083541;27;70170;-36
2022/09/02 11:39:37;;;;;;;9.70;4.97;;;;;;;31.84;71.19;100707.53;5081247;27;66711;-36
2022/09/02 11:42:43;;;;;;;7.72;4.85;;;;;;;31.85;70.88;100725.47;5084583;27;70919;-36
2022/09/02 11:45:31;;;;;;;5.53;5.03;;;;;;;31.84;71.98;100729.22;5077427;27;66282;-35
2022/09/02 11:48:34;;;;;;;4.53;4.20;;;;;;;31.76;71.56;100743.97;5073842;28;70822;-36
2022/09/02 11:51:15;;;;;;;;;;;;;;;31.57;73.50;100756.72;5075032;28;67194;-37
2022/09/02 11:53:48;;;;;;;5.13;4.63;;;;;;;31.81;72.69;100759.53;5076944;27;70794;-38
2022/09/02 11:56:41;;;;;;;14.57;4.13;;;;;;;31.52;72.37;100732.16;5072969;28;67389;-35
2022/09/02 11:59:22;;;;;;;6.28;4.28;;;;;;;31.22;73.35;100687.91;5077813;27;69784;-35
2022/09/02 12:01:56;;;;;;;3.38;3.08;;;;;;;31.65;73.49;100757.44;5078191;28;66038;-36
2022/09/02 12:04:28;;;;;;;5.20;3.45;;;;;;;31.43;73.16;100711.84;5076329;28;70396;-34
2022/09/02 12:07:23;;;;;;;5.78;4.13;;;;;;;31.59;73.52;100743.78;5075653;28;66851;-34
2022/09/02 12:10:04;;;;;;;3.92;3.63;;;;;;;31.55;73.24;100729.00;5079370;28;70889;-37
2022/09/02 12:12:37;;;;;;;6.82;3.88;;;;;;;31.58;73.32;100742.09;5075913;28;67027;-38
2022/09/02 12:15:17;;;;;;;5.38;3.97;;;;;;;31.23;73.48;100689.53;5072756;28;70190;-36